sensor_id;sensor_type;location;lat;lon;timestamp;P1;durP1;ratioP1;P2;durP2;ratioP2
66870;SDS011;53780;44.998;9.926;2023-09-19T00:00:42;14.18;;;5.22;;
66870;SDS011;53780;44.998;9.926;2023-09-19T00:03:47;16.93;;;5.70;;
66870;SDS011;53780;44.998;9.926;2023-09-19T00:06:51;16.75;;;6.18;;
66870;SDS011;53780;44.998;9.926;2023-09-19T00:09:57;15.50;;;5.85;;
66870;SDS011;53780;44.998;9.926;2023-09-19T00:13:01;20.95;;;6.22;;
66870;SDS011;53780;44.998;9.926;2023-09-19T00:16:10;16.25;;;6.57;;
66870;SDS011;53780;44.998;9.926;2023-09-19T00:19:15;21.67;;;6.97;;
66870;SDS011;53780;44.998;9.926;2023-09-19T00:22:19;20.65;;;7.40;;
66870;SDS011;53780;44.998;9.926;2023-09-19T00:25:26;19.33;;;7.10;;
66870;SDS011;53780;44.998;9.926;2023-09-19T00:28:30;24.92;;;8.07;;
66870;SDS011;53780;44.998;9.926;2023-09-19T00:31:35;20.85;;;8.10;;
66870;SDS011;53780;44.998;9.926;2023-09-19T00:34:41;20.77;;;8.17;;
66870;SDS011;53780;44.998;9.926;2023-09-19T00:37:45;17.42;;;8.15;;
66870;SDS011;53780;44.998;9.926;2023-09-19T00:40:50;25.27;;;8.90;;
66870;SDS011;53780;44.998;9.926;2023-09-19T00:43:56;25.20;;;8.77;;
66870;SDS011;53780;44.998;9.926;2023-09-19T00:47:00;20.95;;;8.20;;
66870;SDS011;53780;44.998;9.926;2023-09-19T00:50:05;22.37;;;8.67;;
66870;SDS011;53780;44.998;9.926;2023-09-19T00:53:12;22.30;;;9.35;;
66870;SDS011;53780;44.998;9.926;2023-09-19T00:56:18;25.95;;;10.45;;
66870;SDS011;53780;44.998;9.926;2023-09-19T00:59:24;25.80;;;11.32;;
66870;SDS011;53780;44.998;9.926;2023-09-19T01:02:28;31.10;;;11.40;;
66870;SDS011;53780;44.998;9.926;2023-09-19T01:05:33;24.23;;;11.20;;
66870;SDS011;53780;44.998;9.926;2023-09-19T01:08:38;27.77;;;10.85;;
66870;SDS011;53780;44.998;9.926;2023-09-19T01:11:43;29.75;;;11.45;;
66870;SDS011;53780;44.998;9.926;2023-09-19T01:14:54;23.73;;;10.23;;
66870;SDS011;53780;44.998;9.926;2023-09-19T01:31:42;21.20;;;8.25;;
66870;SDS011;53780;44.998;9.926;2023-09-19T01:35:04;19.27;;;8.40;;
66870;SDS011;53780;44.998;9.926;2023-09-19T01:38:08;26.33;;;8.73;;
66870;SDS011;53780;44.998;9.926;2023-09-19T01:41:15;21.30;;;8.80;;
66870;SDS011;53780;44.998;9.926;2023-09-19T01:44:36;21.88;;;8.23;;
66870;SDS011;53780;44.998;9.926;2023-09-19T01:47:51;18.80;;;8.18;;
66870;SDS011;53780;44.998;9.926;2023-09-19T01:51:00;18.15;;;7.82;;
66870;SDS011;53780;44.998;9.926;2023-09-19T01:54:09;21.23;;;8.10;;
66870;SDS011;53780;44.998;9.926;2023-09-19T01:57:28;22.70;;;8.30;;
66870;SDS011;53780;44.998;9.926;2023-09-19T02:00:34;22.77;;;8.48;;
66870;SDS011;53780;44.998;9.926;2023-09-19T02:03:43;19.55;;;8.48;;
66870;SDS011;53780;44.998;9.926;2023-09-19T02:06:49;19.33;;;8.20;;
66870;SDS011;53780;44.998;9.926;2023-09-19T02:09:53;20.10;;;8.40;;
66870;SDS011;53780;44.998;9.926;2023-09-19T02:12:56;21.70;;;7.88;;
66870;SDS011;53780;44.998;9.926;2023-09-19T02:16:00;19.48;;;7.13;;
66870;SDS011;53780;44.998;9.926;2023-09-19T02:19:05;22.60;;;7.75;;
66870;SDS011;53780;44.998;9.926;2023-09-19T02:22:09;21.65;;;7.90;;
66870;SDS011;53780;44.998;9.926;2023-09-19T02:25:13;19.57;;;7.80;;
66870;SDS011;53780;44.998;9.926;2023-09-19T02:28:18;21.60;;;8.70;;
66870;SDS011;53780;44.998;9.926;2023-09-19T02:31:21;22.70;;;9.48;;
66870;SDS011;53780;44.998;9.926;2023-09-19T02:34:25;21.25;;;8.68;;
66870;SDS011;53780;44.998;9.926;2023-09-19T02:37:29;22.65;;;9.73;;
66870;SDS011;53780;44.998;9.926;2023-09-19T02:40:34;25.90;;;8.90;;
66870;SDS011;53780;44.998;9.926;2023-09-19T02:43:39;24.75;;;10.57;;
66870;SDS011;53780;44.998;9.926;2023-09-19T02:46:42;27.73;;;10.38;;
66870;SDS011;53780;44.998;9.926;2023-09-19T02:49:46;26.67;;;11.15;;
66870;SDS011;53780;44.998;9.926;2023-09-19T02:52:50;25.77;;;11.23;;
66870;SDS011;53780;44.998;9.926;2023-09-19T02:55:54;24.17;;;10.50;;
66870;SDS011;53780;44.998;9.926;2023-09-19T02:58:59;25.20;;;10.82;;
66870;SDS011;53780;44.998;9.926;2023-09-19T03:02:04;25.30;;;11.27;;
66870;SDS011;53780;44.998;9.926;2023-09-19T03:05:09;25.92;;;11.07;;
66870;SDS011;53780;44.998;9.926;2023-09-19T03:08:15;28.60;;;12.93;;
66870;SDS011;53780;44.998;9.926;2023-09-19T03:11:20;30.53;;;13.37;;
66870;SDS011;53780;44.998;9.926;2023-09-19T03:14:28;26.65;;;12.75;;
66870;SDS011;53780;44.998;9.926;2023-09-19T03:17:35;33.40;;;14.07;;
66870;SDS011;53780;44.998;9.926;2023-09-19T03:20:40;30.85;;;13.55;;
66870;SDS011;53780;44.998;9.926;2023-09-19T03:23:44;32.33;;;14.82;;
66870;SDS011;53780;44.998;9.926;2023-09-19T03:26:48;34.67;;;15.10;;
66870;SDS011;53780;44.998;9.926;2023-09-19T03:29:53;32.53;;;15.27;;
66870;SDS011;53780;44.998;9.926;2023-09-19T03:32:57;36.83;;;14.98;;
66870;SDS011;53780;44.998;9.926;2023-09-19T03:36:01;33.33;;;16.25;;
66870;SDS011;53780;44.998;9.926;2023-09-19T03:39:09;40.42;;;16.75;;
66870;SDS011;53780;44.998;9.926;2023-09-19T03:42:14;38.87;;;17.57;;
66870;SDS011;53780;44.998;9.926;2023-09-19T03:45:18;41.92;;;19.83;;
66870;SDS011;53780;44.998;9.926;2023-09-19T03:48:28;42.50;;;19.23;;
66870;SDS011;53780;44.998;9.926;2023-09-19T03:51:33;41.97;;;19.63;;
66870;SDS011;53780;44.998;9.926;2023-09-19T03:54:37;43.15;;;19.85;;
66870;SDS011;53780;44.998;9.926;2023-09-19T03:57:43;45.43;;;21.37;;
66870;SDS011;53780;44.998;9.926;2023-09-19T04:00:54;45.22;;;21.65;;
66870;SDS011;53780;44.998;9.926;2023-09-19T04:03:59;46.15;;;21.80;;
66870;SDS011;53780;44.998;9.926;2023-09-19T04:07:12;51.97;;;22.77;;
66870;SDS011;53780;44.998;9.926;2023-09-19T04:10:16;47.35;;;21.67;;
66870;SDS011;53780;44.998;9.926;2023-09-19T04:13:20;51.90;;;23.47;;
66870;SDS011;53780;44.998;9.926;2023-09-19T04:16:25;49.70;;;21.83;;
66870;SDS011;53780;44.998;9.926;2023-09-19T04:19:28;43.20;;;21.33;;
66870;SDS011;53780;44.998;9.926;2023-09-19T04:22:32;47.38;;;21.90;;
66870;SDS011;53780;44.998;9.926;2023-09-19T04:25:36;50.50;;;21.70;;
66870;SDS011;53780;44.998;9.926;2023-09-19T04:28:40;45.37;;;21.77;;
66870;SDS011;53780;44.998;9.926;2023-09-19T04:31:44;45.83;;;21.45;;
66870;SDS011;53780;44.998;9.926;2023-09-19T04:34:49;45.45;;;21.20;;
66870;SDS011;53780;44.998;9.926;2023-09-19T04:37:53;44.47;;;22.30;;
66870;SDS011;53780;44.998;9.926;2023-09-19T04:40:57;44.78;;;21.42;;
66870;SDS011;53780;44.998;9.926;2023-09-19T04:44:04;43.70;;;21.13;;
66870;SDS011;53780;44.998;9.926;2023-09-19T04:47:09;45.72;;;21.67;;
66870;SDS011;53780;44.998;9.926;2023-09-19T04:50:15;44.22;;;21.75;;
66870;SDS011;53780;44.998;9.926;2023-09-19T04:53:20;44.67;;;20.77;;
66870;SDS011;53780;44.998;9.926;2023-09-19T04:56:24;41.58;;;19.15;;
66870;SDS011;53780;44.998;9.926;2023-09-19T04:59:28;41.50;;;19.30;;
66870;SDS011;53780;44.998;9.926;2023-09-19T05:02:32;40.88;;;19.42;;
66870;SDS011;53780;44.998;9.926;2023-09-19T05:05:37;41.42;;;19.35;;
66870;SDS011;53780;44.998;9.926;2023-09-19T05:08:42;39.90;;;18.88;;
66870;SDS011;53780;44.998;9.926;2023-09-19T05:11:46;40.60;;;18.45;;
66870;SDS011;53780;44.998;9.926;2023-09-19T05:14:50;40.17;;;19.50;;
66870;SDS011;53780;44.998;9.926;2023-09-19T05:17:54;43.67;;;18.95;;
66870;SDS011;53780;44.998;9.926;2023-09-19T05:21:01;40.78;;;19.45;;
66870;SDS011;53780;44.998;9.926;2023-09-19T05:24:05;41.25;;;18.70;;
66870;SDS011;53780;44.998;9.926;2023-09-19T05:27:09;42.42;;;20.73;;
66870;SDS011;53780;44.998;9.926;2023-09-19T05:30:13;42.97;;;19.17;;
66870;SDS011;53780;44.998;9.926;2023-09-19T05:33:18;40.00;;;20.08;;
66870;SDS011;53780;44.998;9.926;2023-09-19T05:36:22;47.15;;;20.38;;
66870;SDS011;53780;44.998;9.926;2023-09-19T05:39:26;44.35;;;20.42;;
66870;SDS011;53780;44.998;9.926;2023-09-19T05:42:30;46.38;;;21.13;;
66870;SDS011;53780;44.998;9.926;2023-09-19T05:45:34;46.80;;;21.20;;
66870;SDS011;53780;44.998;9.926;2023-09-19T05:48:40;50.90;;;21.08;;
66870;SDS011;53780;44.998;9.926;2023-09-19T05:51:44;48.60;;;22.25;;
66870;SDS011;53780;44.998;9.926;2023-09-19T05:54:49;51.50;;;23.02;;
66870;SDS011;53780;44.998;9.926;2023-09-19T05:57:53;55.33;;;23.23;;
66870;SDS011;53780;44.998;9.926;2023-09-19T06:00:57;51.97;;;23.07;;
66870;SDS011;53780;44.998;9.926;2023-09-19T06:04:02;51.25;;;23.63;;
66870;SDS011;53780;44.998;9.926;2023-09-19T06:07:07;48.53;;;22.55;;
66870;SDS011;53780;44.998;9.926;2023-09-19T06:10:11;53.65;;;22.83;;
66870;SDS011;53780;44.998;9.926;2023-09-19T06:13:16;47.67;;;22.70;;
66870;SDS011;53780;44.998;9.926;2023-09-19T06:16:19;50.43;;;22.77;;
66870;SDS011;53780;44.998;9.926;2023-09-19T06:19:23;49.20;;;22.38;;
66870;SDS011;53780;44.998;9.926;2023-09-19T06:22:28;51.00;;;23.13;;
66870;SDS011;53780;44.998;9.926;2023-09-19T06:25:32;51.30;;;22.27;;
66870;SDS011;53780;44.998;9.926;2023-09-19T06:28:36;49.25;;;22.80;;
66870;SDS011;53780;44.998;9.926;2023-09-19T06:31:40;51.90;;;23.10;;
66870;SDS011;53780;44.998;9.926;2023-09-19T06:34:44;59.88;;;23.02;;
66870;SDS011;53780;44.998;9.926;2023-09-19T06:37:49;58.92;;;24.52;;
66870;SDS011;53780;44.998;9.926;2023-09-19T06:40:54;59.97;;;25.80;;
66870;SDS011;53780;44.998;9.926;2023-09-19T06:43:58;59.47;;;25.00;;
66870;SDS011;53780;44.998;9.926;2023-09-19T06:47:02;58.63;;;24.17;;
66870;SDS011;53780;44.998;9.926;2023-09-19T06:50:07;57.97;;;24.67;;
66870;SDS011;53780;44.998;9.926;2023-09-19T06:53:16;59.03;;;24.73;;
66870;SDS011;53780;44.998;9.926;2023-09-19T06:56:21;69.75;;;26.67;;
66870;SDS011;53780;44.998;9.926;2023-09-19T06:59:28;61.47;;;25.42;;
66870;SDS011;53780;44.998;9.926;2023-09-19T07:02:31;53.47;;;24.30;;
66870;SDS011;53780;44.998;9.926;2023-09-19T07:05:35;50.55;;;23.52;;
66870;SDS011;53780;44.998;9.926;2023-09-19T07:08:40;49.92;;;23.40;;
66870;SDS011;53780;44.998;9.926;2023-09-19T07:11:44;52.22;;;23.77;;
66870;SDS011;53780;44.998;9.926;2023-09-19T07:14:48;53.55;;;23.70;;
66870;SDS011;53780;44.998;9.926;2023-09-19T07:17:52;48.07;;;21.73;;
66870;SDS011;53780;44.998;9.926;2023-09-19T07:20:58;47.88;;;22.08;;
66870;SDS011;53780;44.998;9.926;2023-09-19T07:24:07;42.08;;;21.17;;
66870;SDS011;53780;44.998;9.926;2023-09-19T07:27:12;42.85;;;20.90;;
66870;SDS011;53780;44.998;9.926;2023-09-19T07:30:15;45.67;;;20.83;;
66870;SDS011;53780;44.998;9.926;2023-09-19T07:33:20;42.57;;;20.07;;
66870;SDS011;53780;44.998;9.926;2023-09-19T07:36:24;41.13;;;19.75;;
66870;SDS011;53780;44.998;9.926;2023-09-19T07:39:28;37.75;;;18.08;;
66870;SDS011;53780;44.998;9.926;2023-09-19T07:42:33;38.17;;;18.25;;
66870;SDS011;53780;44.998;9.926;2023-09-19T07:45:38;34.38;;;17.02;;
66870;SDS011;53780;44.998;9.926;2023-09-19T07:48:42;38.77;;;17.43;;
66870;SDS011;53780;44.998;9.926;2023-09-19T07:51:50;29.48;;;15.50;;
66870;SDS011;53780;44.998;9.926;2023-09-19T07:54:56;32.95;;;15.52;;
66870;SDS011;53780;44.998;9.926;2023-09-19T07:58:01;31.17;;;14.85;;
66870;SDS011;53780;44.998;9.926;2023-09-19T08:01:07;34.60;;;15.20;;
66870;SDS011;53780;44.998;9.926;2023-09-19T08:04:16;32.10;;;15.23;;
66870;SDS011;53780;44.998;9.926;2023-09-19T08:07:20;30.30;;;15.52;;
66870;SDS011;53780;44.998;9.926;2023-09-19T08:10:23;29.02;;;15.30;;
66870;SDS011;53780;44.998;9.926;2023-09-19T08:13:31;34.10;;;16.17;;
66870;SDS011;53780;44.998;9.926;2023-09-19T08:16:35;33.83;;;16.90;;
66870;SDS011;53780;44.998;9.926;2023-09-19T08:19:38;30.00;;;16.13;;
66870;SDS011;53780;44.998;9.926;2023-09-19T08:22:52;32.88;;;15.82;;
66870;SDS011;53780;44.998;9.926;2023-09-19T08:25:57;34.95;;;16.38;;
66870;SDS011;53780;44.998;9.926;2023-09-19T08:29:03;30.85;;;15.93;;
66870;SDS011;53780;44.998;9.926;2023-09-19T08:32:08;27.35;;;14.95;;
66870;SDS011;53780;44.998;9.926;2023-09-19T08:35:12;32.07;;;13.37;;
66870;SDS011;53780;44.998;9.926;2023-09-19T08:38:15;30.50;;;15.32;;
66870;SDS011;53780;44.998;9.926;2023-09-19T08:43:51;20.88;;;9.80;;
66870;SDS011;53780;44.998;9.926;2023-09-19T08:47:04;24.38;;;11.40;;
66870;SDS011;53780;44.998;9.926;2023-09-19T08:50:26;25.40;;;12.40;;
66870;SDS011;53780;44.998;9.926;2023-09-19T08:56:56;27.27;;;11.80;;
66870;SDS011;53780;44.998;9.926;2023-09-19T09:00:05;22.80;;;10.13;;
66870;SDS011;53780;44.998;9.926;2023-09-19T09:03:13;23.88;;;9.98;;
66870;SDS011;53780;44.998;9.926;2023-09-19T09:06:19;19.73;;;8.73;;
66870;SDS011;53780;44.998;9.926;2023-09-19T09:09:27;19.17;;;9.30;;
66870;SDS011;53780;44.998;9.926;2023-09-19T09:12:31;20.20;;;10.48;;
66870;SDS011;53780;44.998;9.926;2023-09-19T09:15:35;24.05;;;10.82;;
66870;SDS011;53780;44.998;9.926;2023-09-19T09:18:40;22.38;;;9.98;;
66870;SDS011;53780;44.998;9.926;2023-09-19T09:21:44;23.73;;;9.47;;
66870;SDS011;53780;44.998;9.926;2023-09-19T09:24:55;21.70;;;9.95;;
66870;SDS011;53780;44.998;9.926;2023-09-19T09:28:02;18.17;;;7.90;;
66870;SDS011;53780;44.998;9.926;2023-09-19T09:31:06;18.48;;;8.18;;
66870;SDS011;53780;44.998;9.926;2023-09-19T09:34:33;24.10;;;8.98;;
66870;SDS011;53780;44.998;9.926;2023-09-19T09:37:37;16.20;;;7.40;;
66870;SDS011;53780;44.998;9.926;2023-09-19T09:40:51;19.50;;;7.53;;
66870;SDS011;53780;44.998;9.926;2023-09-19T09:44:11;21.48;;;8.45;;
66870;SDS011;53780;44.998;9.926;2023-09-19T09:47:22;18.85;;;7.15;;
66870;SDS011;53780;44.998;9.926;2023-09-19T09:50:46;14.15;;;6.18;;
66870;SDS011;53780;44.998;9.926;2023-09-19T09:53:53;15.27;;;6.00;;
66870;SDS011;53780;44.998;9.926;2023-09-19T09:57:15;14.18;;;6.90;;
66870;SDS011;53780;44.998;9.926;2023-09-19T10:00:26;14.60;;;7.28;;
66870;SDS011;53780;44.998;9.926;2023-09-19T10:03:36;19.15;;;7.38;;
66870;SDS011;53780;44.998;9.926;2023-09-19T10:06:47;15.45;;;6.50;;
66870;SDS011;53780;44.998;9.926;2023-09-19T10:09:51;15.57;;;6.03;;
66870;SDS011;53780;44.998;9.926;2023-09-19T10:12:55;16.75;;;6.95;;
66870;SDS011;53780;44.998;9.926;2023-09-19T10:16:06;14.65;;;6.22;;
66870;SDS011;53780;44.998;9.926;2023-09-19T10:19:29;15.57;;;6.10;;
66870;SDS011;53780;44.998;9.926;2023-09-19T10:22:37;16.67;;;6.53;;
66870;SDS011;53780;44.998;9.926;2023-09-19T10:25:45;15.97;;;5.57;;
66870;SDS011;53780;44.998;9.926;2023-09-19T10:28:50;13.23;;;5.85;;
66870;SDS011;53780;44.998;9.926;2023-09-19T10:31:57;15.00;;;6.22;;
66870;SDS011;53780;44.998;9.926;2023-09-19T10:35:02;13.65;;;5.70;;
66870;SDS011;53780;44.998;9.926;2023-09-19T10:38:12;12.65;;;5.50;;
66870;SDS011;53780;44.998;9.926;2023-09-19T10:41:18;14.57;;;5.63;;
66870;SDS011;53780;44.998;9.926;2023-09-19T10:44:25;10.98;;;5.03;;
66870;SDS011;53780;44.998;9.926;2023-09-19T10:47:29;13.05;;;5.15;;
66870;SDS011;53780;44.998;9.926;2023-09-19T10:50:44;15.65;;;5.80;;
66870;SDS011;53780;44.998;9.926;2023-09-19T10:54:06;13.90;;;5.57;;
66870;SDS011;53780;44.998;9.926;2023-09-19T10:57:23;12.33;;;5.60;;
66870;SDS011;53780;44.998;9.926;2023-09-19T11:00:28;12.93;;;5.22;;
66870;SDS011;53780;44.998;9.926;2023-09-19T11:03:40;13.30;;;6.18;;
66870;SDS011;53780;44.998;9.926;2023-09-19T11:10:06;15.27;;;5.35;;
66870;SDS011;53780;44.998;9.926;2023-09-19T11:13:24;13.63;;;5.40;;
66870;SDS011;53780;44.998;9.926;2023-09-19T11:16:34;11.15;;;5.13;;
66870;SDS011;53780;44.998;9.926;2023-09-19T11:23:17;13.68;;;5.00;;
66870;SDS011;53780;44.998;9.926;2023-09-19T11:30:27;15.13;;;5.53;;
66870;SDS011;53780;44.998;9.926;2023-09-19T11:33:33;13.25;;;4.70;;
66870;SDS011;53780;44.998;9.926;2023-09-19T11:36:40;11.55;;;5.05;;
66870;SDS011;53780;44.998;9.926;2023-09-19T11:43:29;10.57;;;4.90;;
66870;SDS011;53780;44.998;9.926;2023-09-19T11:46:53;11.17;;;4.53;;
66870;SDS011;53780;44.998;9.926;2023-09-19T11:50:00;11.48;;;4.43;;
66870;SDS011;53780;44.998;9.926;2023-09-19T11:53:05;9.85;;;4.90;;
66870;SDS011;53780;44.998;9.926;2023-09-19T11:56:09;12.80;;;4.43;;
66870;SDS011;53780;44.998;9.926;2023-09-19T11:59:13;13.05;;;4.32;;
66870;SDS011;53780;44.998;9.926;2023-09-19T12:02:30;11.50;;;3.90;;
66870;SDS011;53780;44.998;9.926;2023-09-19T12:05:44;8.10;;;3.90;;
66870;SDS011;53780;44.998;9.926;2023-09-19T12:08:48;12.27;;;4.63;;
66870;SDS011;53780;44.998;9.926;2023-09-19T12:11:53;12.05;;;5.03;;
66870;SDS011;53780;44.998;9.926;2023-09-19T12:14:57;11.65;;;4.65;;
66870;SDS011;53780;44.998;9.926;2023-09-19T12:18:02;11.07;;;4.27;;
66870;SDS011;53780;44.998;9.926;2023-09-19T12:21:07;10.13;;;4.00;;
66870;SDS011;53780;44.998;9.926;2023-09-19T12:24:15;9.98;;;3.78;;
66870;SDS011;53780;44.998;9.926;2023-09-19T12:27:22;10.57;;;4.50;;
66870;SDS011;53780;44.998;9.926;2023-09-19T12:30:29;9.88;;;3.53;;
66870;SDS011;53780;44.998;9.926;2023-09-19T12:33:37;9.37;;;3.43;;
66870;SDS011;53780;44.998;9.926;2023-09-19T12:36:42;8.70;;;3.55;;
66870;SDS011;53780;44.998;9.926;2023-09-19T12:39:48;9.65;;;3.70;;
66870;SDS011;53780;44.998;9.926;2023-09-19T12:42:54;7.18;;;3.22;;
66870;SDS011;53780;44.998;9.926;2023-09-19T12:45:59;9.32;;;3.75;;
66870;SDS011;53780;44.998;9.926;2023-09-19T12:49:18;11.33;;;3.63;;
66870;SDS011;53780;44.998;9.926;2023-09-19T12:52:23;12.38;;;3.85;;
66870;SDS011;53780;44.998;9.926;2023-09-19T12:55:29;10.60;;;3.70;;
66870;SDS011;53780;44.998;9.926;2023-09-19T13:02:04;9.32;;;3.22;;
66870;SDS011;53780;44.998;9.926;2023-09-19T13:05:10;13.37;;;3.47;;
66870;SDS011;53780;44.998;9.926;2023-09-19T13:08:18;9.93;;;3.47;;
66870;SDS011;53780;44.998;9.926;2023-09-19T13:11:37;12.52;;;3.78;;
66870;SDS011;53780;44.998;9.926;2023-09-19T13:14:46;9.70;;;3.75;;
66870;SDS011;53780;44.998;9.926;2023-09-19T13:17:52;10.23;;;4.00;;
66870;SDS011;53780;44.998;9.926;2023-09-19T13:21:07;11.00;;;4.13;;
66870;SDS011;53780;44.998;9.926;2023-09-19T13:24:27;9.13;;;3.47;;
66870;SDS011;53780;44.998;9.926;2023-09-19T13:27:31;10.60;;;3.95;;
66870;SDS011;53780;44.998;9.926;2023-09-19T13:30:36;8.15;;;3.33;;
66870;SDS011;53780;44.998;9.926;2023-09-19T13:33:44;19.42;;;4.25;;
66870;SDS011;53780;44.998;9.926;2023-09-19T13:36:51;12.77;;;3.73;;
66870;SDS011;53780;44.998;9.926;2023-09-19T13:39:55;9.43;;;3.60;;
66870;SDS011;53780;44.998;9.926;2023-09-19T13:43:03;11.55;;;3.67;;
66870;SDS011;53780;44.998;9.926;2023-09-19T13:46:09;10.55;;;4.13;;
66870;SDS011;53780;44.998;9.926;2023-09-19T13:49:18;9.98;;;3.70;;
66870;SDS011;53780;44.998;9.926;2023-09-19T13:52:22;10.13;;;3.73;;
66870;SDS011;53780;44.998;9.926;2023-09-19T13:55:26;11.73;;;4.05;;
66870;SDS011;53780;44.998;9.926;2023-09-19T13:58:30;12.15;;;4.03;;
66870;SDS011;53780;44.998;9.926;2023-09-19T14:01:36;12.15;;;3.58;;
66870;SDS011;53780;44.998;9.926;2023-09-19T14:04:40;9.73;;;3.85;;
66870;SDS011;53780;44.998;9.926;2023-09-19T14:07:44;12.03;;;4.20;;
66870;SDS011;53780;44.998;9.926;2023-09-19T14:10:48;8.68;;;3.58;;
66870;SDS011;53780;44.998;9.926;2023-09-19T14:13:53;13.63;;;3.95;;
66870;SDS011;53780;44.998;9.926;2023-09-19T14:16:57;10.45;;;3.90;;
66870;SDS011;53780;44.998;9.926;2023-09-19T14:20:04;12.05;;;3.70;;
66870;SDS011;53780;44.998;9.926;2023-09-19T14:23:10;14.23;;;4.13;;
66870;SDS011;53780;44.998;9.926;2023-09-19T14:26:13;9.77;;;3.80;;
66870;SDS011;53780;44.998;9.926;2023-09-19T14:29:19;9.20;;;3.95;;
66870;SDS011;53780;44.998;9.926;2023-09-19T14:32:23;10.80;;;4.05;;
66870;SDS011;53780;44.998;9.926;2023-09-19T14:35:27;11.85;;;3.65;;
66870;SDS011;53780;44.998;9.926;2023-09-19T14:38:30;14.00;;;3.70;;
66870;SDS011;53780;44.998;9.926;2023-09-19T14:41:36;10.52;;;3.65;;
66870;SDS011;53780;44.998;9.926;2023-09-19T14:44:40;10.80;;;3.53;;
66870;SDS011;53780;44.998;9.926;2023-09-19T14:47:45;16.42;;;3.85;;
66870;SDS011;53780;44.998;9.926;2023-09-19T14:50:50;11.55;;;3.70;;
66870;SDS011;53780;44.998;9.926;2023-09-19T14:53:54;12.43;;;3.50;;
66870;SDS011;53780;44.998;9.926;2023-09-19T14:56:59;8.77;;;3.38;;
66870;SDS011;53780;44.998;9.926;2023-09-19T15:00:09;9.82;;;3.42;;
66870;SDS011;53780;44.998;9.926;2023-09-19T15:03:15;11.35;;;3.38;;
66870;SDS011;53780;44.998;9.926;2023-09-19T15:06:18;8.13;;;3.45;;
66870;SDS011;53780;44.998;9.926;2023-09-19T15:09:24;14.30;;;3.90;;
66870;SDS011;53780;44.998;9.926;2023-09-19T15:12:29;10.40;;;3.45;;
66870;SDS011;53780;44.998;9.926;2023-09-19T15:15:33;11.80;;;3.78;;
66870;SDS011;53780;44.998;9.926;2023-09-19T15:18:37;9.40;;;3.53;;
66870;SDS011;53780;44.998;9.926;2023-09-19T15:21:43;10.35;;;3.30;;
66870;SDS011;53780;44.998;9.926;2023-09-19T15:24:47;8.90;;;3.20;;
66870;SDS011;53780;44.998;9.926;2023-09-19T15:27:51;10.25;;;3.20;;
66870;SDS011;53780;44.998;9.926;2023-09-19T15:31:02;9.50;;;3.33;;
66870;SDS011;53780;44.998;9.926;2023-09-19T15:34:10;11.77;;;3.50;;
66870;SDS011;53780;44.998;9.926;2023-09-19T15:37:17;12.73;;;3.65;;
66870;SDS011;53780;44.998;9.926;2023-09-19T15:40:22;10.17;;;3.77;;
66870;SDS011;53780;44.998;9.926;2023-09-19T15:43:27;8.45;;;3.35;;
66870;SDS011;53780;44.998;9.926;2023-09-19T15:46:32;13.77;;;3.60;;
66870;SDS011;53780;44.998;9.926;2023-09-19T15:49:39;12.80;;;3.38;;
66870;SDS011;53780;44.998;9.926;2023-09-19T15:52:43;11.98;;;4.03;;
66870;SDS011;53780;44.998;9.926;2023-09-19T15:55:47;8.63;;;3.30;;
66870;SDS011;53780;44.998;9.926;2023-09-19T15:58:51;13.63;;;3.47;;
66870;SDS011;53780;44.998;9.926;2023-09-19T16:01:58;13.65;;;3.92;;
66870;SDS011;53780;44.998;9.926;2023-09-19T16:05:02;10.35;;;3.50;;
66870;SDS011;53780;44.998;9.926;2023-09-19T16:08:09;9.13;;;2.85;;
66870;SDS011;53780;44.998;9.926;2023-09-19T16:11:13;14.23;;;4.00;;
66870;SDS011;53780;44.998;9.926;2023-09-19T16:14:21;11.85;;;3.45;;
66870;SDS011;53780;44.998;9.926;2023-09-19T16:17:25;8.90;;;3.30;;
66870;SDS011;53780;44.998;9.926;2023-09-19T16:20:30;12.27;;;3.20;;
66870;SDS011;53780;44.998;9.926;2023-09-19T16:23:34;8.02;;;3.20;;
66870;SDS011;53780;44.998;9.926;2023-09-19T16:26:38;9.70;;;3.53;;
66870;SDS011;53780;44.998;9.926;2023-09-19T16:29:42;7.47;;;3.13;;
66870;SDS011;53780;44.998;9.926;2023-09-19T16:32:46;8.95;;;3.13;;
66870;SDS011;53780;44.998;9.926;2023-09-19T16:35:49;12.27;;;3.25;;
66870;SDS011;53780;44.998;9.926;2023-09-19T16:38:53;16.65;;;3.67;;
66870;SDS011;53780;44.998;9.926;2023-09-19T16:41:57;18.03;;;3.83;;
66870;SDS011;53780;44.998;9.926;2023-09-19T16:45:00;28.13;;;4.10;;
66870;SDS011;53780;44.998;9.926;2023-09-19T16:48:05;19.92;;;3.97;;
66870;SDS011;53780;44.998;9.926;2023-09-19T16:51:09;14.25;;;3.50;;
66870;SDS011;53780;44.998;9.926;2023-09-19T16:54:14;16.10;;;4.07;;
66870;SDS011;53780;44.998;9.926;2023-09-19T16:57:18;15.17;;;3.40;;
66870;SDS011;53780;44.998;9.926;2023-09-19T17:00:22;12.88;;;3.85;;
66870;SDS011;53780;44.998;9.926;2023-09-19T17:03:28;8.80;;;3.42;;
66870;SDS011;53780;44.998;9.926;2023-09-19T17:06:32;11.57;;;3.63;;
66870;SDS011;53780;44.998;9.926;2023-09-19T17:09:36;11.05;;;3.38;;
66870;SDS011;53780;44.998;9.926;2023-09-19T17:12:39;11.00;;;3.07;;
66870;SDS011;53780;44.998;9.926;2023-09-19T17:15:43;7.88;;;3.30;;
66870;SDS011;53780;44.998;9.926;2023-09-19T17:18:51;8.52;;;3.17;;
66870;SDS011;53780;44.998;9.926;2023-09-19T17:21:58;10.07;;;3.45;;
66870;SDS011;53780;44.998;9.926;2023-09-19T17:25:02;11.63;;;3.70;;
66870;SDS011;53780;44.998;9.926;2023-09-19T17:28:06;11.77;;;4.00;;
66870;SDS011;53780;44.998;9.926;2023-09-19T17:31:14;11.35;;;3.72;;
66870;SDS011;53780;44.998;9.926;2023-09-19T17:34:22;13.80;;;3.90;;
66870;SDS011;53780;44.998;9.926;2023-09-19T17:37:26;12.43;;;4.00;;
66870;SDS011;53780;44.998;9.926;2023-09-19T17:40:29;26.52;;;4.40;;
66870;SDS011;53780;44.998;9.926;2023-09-19T17:43:36;17.00;;;4.03;;
66870;SDS011;53780;44.998;9.926;2023-09-19T17:46:41;12.13;;;3.80;;
66870;SDS011;53780;44.998;9.926;2023-09-19T17:49:45;13.80;;;3.90;;
66870;SDS011;53780;44.998;9.926;2023-09-19T17:52:52;9.82;;;3.50;;
66870;SDS011;53780;44.998;9.926;2023-09-19T17:55:56;15.38;;;4.22;;
66870;SDS011;53780;44.998;9.926;2023-09-19T17:59:00;13.60;;;3.77;;
66870;SDS011;53780;44.998;9.926;2023-09-19T18:02:03;14.98;;;3.53;;
66870;SDS011;53780;44.998;9.926;2023-09-19T18:05:07;22.45;;;3.80;;
66870;SDS011;53780;44.998;9.926;2023-09-19T18:08:11;14.40;;;3.42;;
66870;SDS011;53780;44.998;9.926;2023-09-19T18:11:18;16.40;;;3.80;;
66870;SDS011;53780;44.998;9.926;2023-09-19T18:14:25;11.67;;;4.20;;
66870;SDS011;53780;44.998;9.926;2023-09-19T18:17:28;12.73;;;3.70;;
66870;SDS011;53780;44.998;9.926;2023-09-19T18:20:33;13.15;;;3.75;;
66870;SDS011;53780;44.998;9.926;2023-09-19T18:23:37;11.90;;;3.83;;
66870;SDS011;53780;44.998;9.926;2023-09-19T18:26:41;11.23;;;4.20;;
66870;SDS011;53780;44.998;9.926;2023-09-19T18:29:46;13.70;;;3.60;;
66870;SDS011;53780;44.998;9.926;2023-09-19T18:32:50;14.90;;;3.78;;
66870;SDS011;53780;44.998;9.926;2023-09-19T18:35:59;17.17;;;3.78;;
66870;SDS011;53780;44.998;9.926;2023-09-19T18:39:05;14.27;;;3.60;;
66870;SDS011;53780;44.998;9.926;2023-09-19T18:42:11;14.20;;;4.45;;
66870;SDS011;53780;44.998;9.926;2023-09-19T18:45:14;11.97;;;3.87;;
66870;SDS011;53780;44.998;9.926;2023-09-19T18:48:19;14.35;;;3.88;;
66870;SDS011;53780;44.998;9.926;2023-09-19T18:51:22;15.32;;;4.88;;
66870;SDS011;53780;44.998;9.926;2023-09-19T18:54:28;16.42;;;4.85;;
66870;SDS011;53780;44.998;9.926;2023-09-19T18:57:32;13.57;;;3.90;;